VIR251 ZSPD-EDDM
Flight info
| Callsign | VIR251 |
|---|---|
| Flight time | N/A |
| Altitude | 32100 |
| Route | PIK81D/17L PIKAS G330 PIMOL A593 DALIM W157 VYK G212 SOTMU B339 ASILA A575 UPREK W28 LAGEB W66 NUKTI B215 FKG A368 SARIN/K0900F321 N161 GASBI/N0492F321 N161 LEYLA N644 ADEKI DCT BADIR DCT LAGAS DCT FOQUS DCT SARPI UM10 GOKPA UL746 ODERO DCT OPT DCT SOKRU DCT MOPUG DCT SUNIS DCT AMADI Q113 NAPSA NAPSA1B |
| Aircraft | A346/H-SDE2E3FGHIJ3J4J5M1RWXY/LB1D1 |
Departure
| Time | 2026-05-04 22:27 |
|---|---|
| Airport | Shanghai Pudong International Airport (ZSPD) |
Arrival
| Time | N/A |
|---|---|
| Airport | Munich Airport (EDDM) |
| Time | Latitude | Longitude | Altitude | Speed | Heading |
|---|---|---|---|---|---|
| 2026-05-04 22:02 | 31.15504 | 121.80690 | 30 ft | 0 kts | 252° |
| 2026-05-04 22:17 | 31.15505 | 121.80693 | 31 ft | 3 kts | 252° |
| 2026-05-04 22:17 | 31.15513 | 121.80722 | 30 ft | 4 kts | 252° |
| 2026-05-04 22:17 | 31.15519 | 121.80747 | 30 ft | 4 kts | 266° |
| 2026-05-04 22:18 | 31.15516 | 121.80768 | 28 ft | 4 kts | 303° |
| 2026-05-04 22:18 | 31.15502 | 121.80782 | 29 ft | 4 kts | 337° |
| 2026-05-04 22:18 | 31.15477 | 121.80791 | 30 ft | 4 kts | 343° |
| 2026-05-04 22:18 | 31.15467 | 121.80795 | 29 ft | 0 kts | 342° |
| 2026-05-04 22:22 | 31.15471 | 121.80793 | 30 ft | 2 kts | 342° |
| 2026-05-04 22:23 | 31.15488 | 121.80787 | 28 ft | 4 kts | 342° |
| 2026-05-04 22:23 | 31.15519 | 121.80775 | 30 ft | 6 kts | 342° |
| 2026-05-04 22:23 | 31.15563 | 121.80759 | 31 ft | 7 kts | 342° |
| 2026-05-04 22:23 | 31.15615 | 121.80739 | 31 ft | 8 kts | 342° |
| 2026-05-04 22:24 | 31.15673 | 121.80717 | 31 ft | 9 kts | 342° |
| 2026-05-04 22:24 | 31.15737 | 121.80707 | 31 ft | 9 kts | 16° |
| 2026-05-04 22:24 | 31.15769 | 121.80766 | 31 ft | 10 kts | 71° |
| 2026-05-04 22:24 | 31.15791 | 121.80843 | 31 ft | 10 kts | 71° |
| 2026-05-04 22:25 | 31.15816 | 121.80929 | 31 ft | 12 kts | 71° |
| 2026-05-04 22:25 | 31.15842 | 121.81022 | 30 ft | 11 kts | 71° |
| 2026-05-04 22:25 | 31.15862 | 121.81090 | 30 ft | 8 kts | 71° |
| 2026-05-04 22:25 | 31.15878 | 121.81148 | 29 ft | 6 kts | 71° |
| 2026-05-04 22:26 | 31.15870 | 121.81189 | 29 ft | 8 kts | 141° |
| 2026-05-04 22:26 | 31.15796 | 121.81219 | 30 ft | 13 kts | 163° |
| 2026-05-04 22:26 | 31.15551 | 121.81310 | 30 ft | 69 kts | 162° |
| 2026-05-04 22:26 | 31.15162 | 121.81461 | 31 ft | 108 kts | 162° |
| 2026-05-04 22:27 | 31.14267 | 121.81797 | 33 ft | 160 kts | 162° |
| 2026-05-04 22:27 | 31.12626 | 121.82419 | 136 ft | 206 kts | 158° |
| 2026-05-04 22:27 | 31.11702 | 121.82795 | 455 ft | 210 kts | 161° |
| 2026-05-04 22:27 | 31.10415 | 121.83501 | 1295 ft | 200 kts | 147° |
| 2026-05-04 22:28 | 31.09335 | 121.84497 | 2026 ft | 199 kts | 142° |
| 2026-05-04 22:28 | 31.07766 | 121.85737 | 2351 ft | 214 kts | 150° |
| 2026-05-04 22:28 | 31.06439 | 121.86624 | 2581 ft | 227 kts | 152° |
| 2026-05-04 22:28 | 31.05484 | 121.87244 | 2764 ft | 237 kts | 152° |
| 2026-05-04 22:29 | 31.03965 | 121.88119 | 3049 ft | 251 kts | 166° |
| 2026-05-04 22:29 | 31.02209 | 121.88147 | 3432 ft | 258 kts | 197° |
| 2026-05-04 22:29 | 31.00654 | 121.87111 | 3928 ft | 261 kts | 227° |
| 2026-05-04 22:29 | 30.99735 | 121.85330 | 4464 ft | 263 kts | 252° |
| 2026-05-04 22:30 | 30.99199 | 121.83293 | 5074 ft | 264 kts | 253° |
| 2026-05-04 22:30 | 30.98663 | 121.81237 | 5619 ft | 266 kts | 254° |
| 2026-05-04 22:30 | 30.98109 | 121.79147 | 5889 ft | 272 kts | 253° |
| 2026-05-04 22:30 | 30.97527 | 121.76977 | 5902 ft | 284 kts | 253° |
| 2026-05-04 22:31 | 30.96926 | 121.74770 | 5903 ft | 285 kts | 253° |
| 2026-05-04 22:31 | 30.96406 | 121.72536 | 5897 ft | 285 kts | 264° |
| 2026-05-04 22:31 | 30.96425 | 121.70229 | 5961 ft | 290 kts | 281° |
| 2026-05-04 22:31 | 30.96838 | 121.67900 | 6551 ft | 290 kts | 283° |
| 2026-05-04 22:32 | 30.97280 | 121.65614 | 7245 ft | 288 kts | 283° |
| 2026-05-04 22:32 | 30.97721 | 121.63328 | 7815 ft | 290 kts | 283° |
| 2026-05-04 22:32 | 30.98158 | 121.61019 | 8370 ft | 293 kts | 283° |
| 2026-05-04 22:32 | 30.98588 | 121.58723 | 8920 ft | 295 kts | 283° |
| 2026-05-04 22:33 | 30.99029 | 121.56345 | 9467 ft | 297 kts | 283° |
| 2026-05-04 22:33 | 30.99464 | 121.53980 | 10021 ft | 299 kts | 283° |
| 2026-05-04 22:33 | 30.99905 | 121.51584 | 10449 ft | 305 kts | 282° |
| 2026-05-04 22:33 | 31.00352 | 121.49150 | 10669 ft | 318 kts | 282° |
| 2026-05-04 22:34 | 31.00824 | 121.46580 | 10893 ft | 330 kts | 282° |
| 2026-05-04 22:34 | 31.01315 | 121.43915 | 11114 ft | 342 kts | 282° |
| 2026-05-04 22:34 | 31.01825 | 121.41150 | 11341 ft | 354 kts | 282° |
| 2026-05-04 22:34 | 31.02352 | 121.38286 | 11568 ft | 366 kts | 282° |
| 2026-05-04 22:35 | 31.02893 | 121.35338 | 11884 ft | 374 kts | 282° |
| 2026-05-04 22:35 | 31.03437 | 121.32370 | 12068 ft | 374 kts | 282° |
| 2026-05-04 22:35 | 31.03981 | 121.29395 | 12068 ft | 374 kts | 282° |
| 2026-05-04 22:35 | 31.04522 | 121.26424 | 12074 ft | 374 kts | 282° |
| 2026-05-04 22:36 | 31.05063 | 121.23456 | 12074 ft | 373 kts | 282° |
| 2026-05-04 22:36 | 31.05603 | 121.20487 | 12077 ft | 373 kts | 282° |
| 2026-05-04 22:36 | 31.06309 | 121.17582 | 12044 ft | 374 kts | 294° |
| 2026-05-04 22:36 | 31.07785 | 121.15051 | 12151 ft | 383 kts | 314° |
| 2026-05-04 22:37 | 31.09930 | 121.13211 | 12745 ft | 384 kts | 332° |
| 2026-05-04 22:37 | 31.12479 | 121.12260 | 13365 ft | 388 kts | 351° |
| 2026-05-04 22:37 | 31.15150 | 121.12050 | 13890 ft | 391 kts | 356° |
| 2026-05-04 22:37 | 31.17922 | 121.11935 | 14294 ft | 396 kts | 356° |
| 2026-05-04 22:38 | 31.20678 | 121.11811 | 14762 ft | 398 kts | 355° |
| 2026-05-04 22:38 | 31.23413 | 121.11672 | 15250 ft | 399 kts | 355° |
| 2026-05-04 22:38 | 31.26198 | 121.11519 | 15695 ft | 402 kts | 355° |
| 2026-05-04 22:38 | 31.29000 | 121.11360 | 16132 ft | 404 kts | 354° |
| 2026-05-04 22:39 | 31.31817 | 121.11197 | 16579 ft | 407 kts | 354° |
| 2026-05-04 22:39 | 31.34656 | 121.11083 | 17022 ft | 411 kts | 357° |
| 2026-05-04 22:39 | 31.37529 | 121.11157 | 17461 ft | 414 kts | 360° |
| 2026-05-04 22:39 | 31.40419 | 121.11339 | 17894 ft | 417 kts | 0° |
| 2026-05-04 22:40 | 31.43317 | 121.11346 | 18306 ft | 417 kts | 352° |
| 2026-05-04 22:40 | 31.46171 | 121.10777 | 18684 ft | 415 kts | 342° |
| 2026-05-04 22:40 | 31.48891 | 121.09662 | 19060 ft | 414 kts | 334° |
| 2026-05-04 22:40 | 31.51528 | 121.08284 | 19451 ft | 415 kts | 332° |
| 2026-05-04 22:41 | 31.54159 | 121.06863 | 19800 ft | 418 kts | 332° |
| 2026-05-04 22:41 | 31.56809 | 121.05431 | 20167 ft | 421 kts | 332° |
| 2026-05-04 22:41 | 31.59480 | 121.03994 | 20530 ft | 423 kts | 332° |
| 2026-05-04 22:41 | 31.62167 | 121.02555 | 20898 ft | 425 kts | 332° |
| 2026-05-04 22:42 | 31.64868 | 121.01111 | 21257 ft | 428 kts | 332° |
| 2026-05-04 22:42 | 31.67578 | 120.99664 | 21609 ft | 430 kts | 332° |
| 2026-05-04 22:42 | 31.70311 | 120.98204 | 21975 ft | 432 kts | 332° |
| 2026-05-04 22:42 | 31.73059 | 120.96736 | 22334 ft | 434 kts | 332° |
| 2026-05-04 22:43 | 31.75814 | 120.95264 | 22686 ft | 436 kts | 333° |
| 2026-05-04 22:43 | 31.78588 | 120.93782 | 23032 ft | 439 kts | 332° |
| 2026-05-04 22:43 | 31.81368 | 120.92297 | 23377 ft | 441 kts | 332° |
| 2026-05-04 22:43 | 31.84140 | 120.90815 | 23707 ft | 443 kts | 332° |
| 2026-05-04 22:44 | 31.86940 | 120.89317 | 23976 ft | 445 kts | 332° |
| 2026-05-04 22:44 | 31.89770 | 120.87803 | 24263 ft | 446 kts | 332° |
| 2026-05-04 22:44 | 31.92599 | 120.86287 | 24552 ft | 448 kts | 332° |
| 2026-05-04 22:44 | 31.95439 | 120.84764 | 24837 ft | 450 kts | 332° |
| 2026-05-04 22:45 | 31.98290 | 120.83226 | 25132 ft | 451 kts | 332° |
| 2026-05-04 22:45 | 32.04017 | 120.80147 | 25684 ft | 455 kts | 332° |
| 2026-05-04 22:45 | 32.06903 | 120.78595 | 25944 ft | 456 kts | 332° |
| 2026-05-04 22:46 | 32.09788 | 120.77042 | 26212 ft | 458 kts | 332° |
| 2026-05-04 22:46 | 32.12609 | 120.75283 | 26421 ft | 456 kts | 321° |
| 2026-05-04 22:46 | 32.14898 | 120.72743 | 26630 ft | 451 kts | 305° |
| 2026-05-04 22:46 | 32.16487 | 120.69599 | 26906 ft | 446 kts | 290° |
| 2026-05-04 22:47 | 32.17311 | 120.66088 | 27153 ft | 444 kts | 277° |
| 2026-05-04 22:47 | 32.17626 | 120.62460 | 27431 ft | 445 kts | 275° |
| 2026-05-04 22:47 | 32.17918 | 120.58813 | 27649 ft | 447 kts | 275° |
| 2026-05-04 22:47 | 32.18214 | 120.55143 | 27892 ft | 449 kts | 275° |
| 2026-05-04 22:48 | 32.18513 | 120.51477 | 28247 ft | 447 kts | 275° |
| 2026-05-04 22:48 | 32.18813 | 120.47823 | 28638 ft | 446 kts | 275° |
| 2026-05-04 22:48 | 32.19109 | 120.44224 | 28961 ft | 445 kts | 275° |
| 2026-05-04 22:48 | 32.19409 | 120.40570 | 29219 ft | 446 kts | 275° |
| 2026-05-04 22:49 | 32.19708 | 120.36904 | 29442 ft | 448 kts | 275° |
| 2026-05-04 22:49 | 32.20008 | 120.33218 | 29562 ft | 452 kts | 275° |
| 2026-05-04 22:49 | 32.20309 | 120.29518 | 29764 ft | 453 kts | 275° |
| 2026-05-04 22:49 | 32.20613 | 120.25803 | 30037 ft | 453 kts | 275° |
| 2026-05-04 22:50 | 32.20918 | 120.22100 | 30138 ft | 454 kts | 275° |
| 2026-05-04 22:50 | 32.21222 | 120.18391 | 30143 ft | 454 kts | 275° |
| 2026-05-04 22:50 | 32.21826 | 120.10967 | 30149 ft | 454 kts | 275° |
| 2026-05-04 22:51 | 32.22427 | 120.03503 | 30142 ft | 456 kts | 275° |
| 2026-05-04 22:51 | 32.23022 | 119.96071 | 30147 ft | 457 kts | 275° |
| 2026-05-04 22:52 | 32.23615 | 119.88595 | 30141 ft | 457 kts | 275° |
| 2026-05-04 22:52 | 32.24547 | 119.81164 | 30128 ft | 459 kts | 287° |
| 2026-05-04 22:53 | 32.27549 | 119.74491 | 30135 ft | 466 kts | 307° |
| 2026-05-04 22:53 | 32.29824 | 119.71731 | 30140 ft | 470 kts | 318° |
| 2026-05-04 22:53 | 32.32430 | 119.69394 | 30148 ft | 471 kts | 321° |
| 2026-05-04 22:54 | 32.37774 | 119.64881 | 30140 ft | 471 kts | 322° |
| 2026-05-04 22:54 | 32.43069 | 119.60393 | 30136 ft | 471 kts | 322° |
| 2026-05-04 22:55 | 32.48372 | 119.55854 | 30137 ft | 471 kts | 321° |
| 2026-05-04 22:55 | 32.53666 | 119.51279 | 30133 ft | 471 kts | 321° |
| 2026-05-04 22:56 | 32.58968 | 119.46689 | 30131 ft | 472 kts | 322° |
| 2026-05-04 22:56 | 32.64274 | 119.42096 | 30127 ft | 472 kts | 322° |
| 2026-05-04 22:57 | 32.69582 | 119.37493 | 30125 ft | 472 kts | 322° |
| 2026-05-04 22:57 | 32.74891 | 119.32882 | 30124 ft | 472 kts | 322° |
| 2026-05-04 22:58 | 32.80193 | 119.28271 | 30123 ft | 472 kts | 322° |
| 2026-05-04 22:58 | 32.85499 | 119.23647 | 30127 ft | 472 kts | 322° |
| 2026-05-04 22:59 | 32.90755 | 119.19060 | 30123 ft | 472 kts | 322° |
| 2026-05-04 22:59 | 32.96055 | 119.14442 | 30123 ft | 472 kts | 322° |
| 2026-05-04 23:00 | 33.01380 | 119.09864 | 30122 ft | 472 kts | 322° |
| 2026-05-04 23:00 | 33.06700 | 119.05285 | 30122 ft | 472 kts | 322° |
| 2026-05-04 23:01 | 33.11996 | 119.00713 | 30122 ft | 472 kts | 322° |
| 2026-05-04 23:01 | 33.17314 | 118.96113 | 30127 ft | 471 kts | 322° |
| 2026-05-04 23:02 | 33.22606 | 118.91517 | 30120 ft | 469 kts | 322° |
| 2026-05-04 23:02 | 33.27880 | 118.86907 | 30114 ft | 469 kts | 322° |
| 2026-05-04 23:03 | 33.33162 | 118.82309 | 30116 ft | 470 kts | 322° |
| 2026-05-04 23:03 | 33.38427 | 118.77755 | 30111 ft | 470 kts | 322° |
| 2026-05-04 23:04 | 33.43758 | 118.73131 | 30111 ft | 470 kts | 322° |
| 2026-05-04 23:04 | 33.49003 | 118.68579 | 30115 ft | 467 kts | 322° |
| 2026-05-04 23:05 | 33.54272 | 118.64012 | 30110 ft | 466 kts | 322° |
| 2026-05-04 23:05 | 33.59515 | 118.59463 | 30111 ft | 465 kts | 322° |
| 2026-05-04 23:06 | 33.64763 | 118.54901 | 30102 ft | 465 kts | 322° |
| 2026-05-04 23:06 | 33.70036 | 118.50309 | 30312 ft | 469 kts | 322° |
| 2026-05-04 23:07 | 33.72677 | 118.48008 | 30608 ft | 468 kts | 322° |
| 2026-05-04 23:07 | 33.75310 | 118.45713 | 30900 ft | 467 kts | 322° |
| 2026-05-04 23:07 | 33.77941 | 118.43416 | 31200 ft | 465 kts | 322° |
| 2026-05-04 23:07 | 33.80551 | 118.41135 | 31483 ft | 464 kts | 322° |
| 2026-05-04 23:08 | 33.83160 | 118.38853 | 31723 ft | 463 kts | 322° |
| 2026-05-04 23:08 | 33.85736 | 118.36597 | 31938 ft | 463 kts | 322° |
| 2026-05-04 23:08 | 33.88337 | 118.34316 | 32170 ft | 463 kts | 322° |
| 2026-05-04 23:08 | 33.90943 | 118.32032 | 32386 ft | 462 kts | 322° |
| 2026-05-04 23:09 | 33.93541 | 118.29753 | 32613 ft | 462 kts | 322° |
| 2026-05-04 23:09 | 33.96145 | 118.27467 | 32823 ft | 462 kts | 322° |
| 2026-05-04 23:09 | 33.98747 | 118.25188 | 33016 ft | 462 kts | 322° |
| 2026-05-04 23:09 | 34.01348 | 118.22925 | 33217 ft | 462 kts | 322° |
| 2026-05-04 23:10 | 34.03957 | 118.20658 | 33416 ft | 462 kts | 322° |
| 2026-05-04 23:10 | 34.06565 | 118.18386 | 33622 ft | 461 kts | 322° |
| 2026-05-04 23:10 | 34.09166 | 118.16118 | 33785 ft | 462 kts | 322° |
| 2026-05-04 23:10 | 34.11773 | 118.13848 | 33787 ft | 462 kts | 322° |
| 2026-05-04 23:11 | 34.16985 | 118.09307 | 33799 ft | 462 kts | 322° |
| 2026-05-04 23:11 | 34.22229 | 118.04904 | 33796 ft | 463 kts | 326° |
| 2026-05-04 23:12 | 34.27850 | 118.01060 | 33797 ft | 465 kts | 332° |
| 2026-05-04 23:12 | 34.33786 | 117.97911 | 33807 ft | 466 kts | 338° |
| 2026-05-04 23:13 | 34.39950 | 117.95465 | 33805 ft | 466 kts | 341° |
| 2026-05-04 23:13 | 34.46178 | 117.93251 | 33800 ft | 466 kts | 342° |
| 2026-05-04 23:14 | 34.52412 | 117.91035 | 33797 ft | 466 kts | 342° |
| 2026-05-04 23:14 | 34.58631 | 117.88813 | 33808 ft | 466 kts | 342° |
| 2026-05-04 23:15 | 34.64857 | 117.86581 | 33799 ft | 465 kts | 342° |
| 2026-05-04 23:15 | 34.71023 | 117.84367 | 33800 ft | 465 kts | 342° |
| 2026-05-04 23:16 | 34.77240 | 117.82131 | 33799 ft | 465 kts | 342° |
| 2026-05-04 23:16 | 34.83453 | 117.79889 | 33819 ft | 465 kts | 341° |
| 2026-05-04 23:17 | 34.88604 | 117.77998 | 33806 ft | 464 kts | 342° |
| 2026-05-04 23:17 | 34.94792 | 117.75736 | 33801 ft | 464 kts | 342° |
| 2026-05-04 23:18 | 35.00981 | 117.73471 | 33801 ft | 464 kts | 342° |
| 2026-05-04 23:18 | 35.07174 | 117.71200 | 33798 ft | 464 kts | 342° |
| 2026-05-04 23:19 | 35.13361 | 117.68929 | 33797 ft | 463 kts | 342° |
| 2026-05-04 23:19 | 35.19530 | 117.66667 | 33796 ft | 462 kts | 342° |
| 2026-05-04 23:20 | 35.25687 | 117.64405 | 33793 ft | 462 kts | 342° |
| 2026-05-04 23:20 | 35.31811 | 117.62151 | 33792 ft | 462 kts | 342° |
| 2026-05-04 23:21 | 35.37959 | 117.59878 | 33790 ft | 460 kts | 342° |
| 2026-05-04 23:21 | 35.44124 | 117.57603 | 33785 ft | 460 kts | 342° |
| 2026-05-04 23:22 | 35.50216 | 117.55351 | 33785 ft | 459 kts | 342° |
| 2026-05-04 23:22 | 35.56340 | 117.53082 | 33779 ft | 459 kts | 342° |
| 2026-05-04 23:23 | 35.62459 | 117.50811 | 33781 ft | 459 kts | 342° |
| 2026-05-04 23:23 | 35.68581 | 117.48535 | 33779 ft | 459 kts | 342° |
| 2026-05-04 23:24 | 35.74697 | 117.46253 | 33765 ft | 458 kts | 343° |
| 2026-05-04 23:24 | 35.80797 | 117.43978 | 33769 ft | 458 kts | 343° |
| 2026-05-04 23:25 | 35.86891 | 117.41699 | 33773 ft | 456 kts | 343° |
| 2026-05-04 23:25 | 35.92962 | 117.39429 | 33766 ft | 456 kts | 343° |